sensor_id;sensor_type;location;lat;lon;timestamp;temperature;humidity
18175;DHT22;9212;50.894;16.714;2022-09-16T00:01:16;12.30;99.90
18175;DHT22;9212;50.894;16.714;2022-09-16T00:03:44;12.30;99.90
18175;DHT22;9212;50.894;16.714;2022-09-16T00:06:20;12.40;99.90
18175;DHT22;9212;50.894;16.714;2022-09-16T00:08:48;12.50;99.90
18175;DHT22;9212;50.894;16.714;2022-09-16T00:11:15;12.60;99.90
18175;DHT22;9212;50.894;16.714;2022-09-16T00:13:42;12.60;99.90
18175;DHT22;9212;50.894;16.714;2022-09-16T00:16:11;12.40;99.90
18175;DHT22;9212;50.894;16.714;2022-09-16T00:18:41;12.40;99.90
18175;DHT22;9212;50.894;16.714;2022-09-16T00:21:09;12.50;99.90
18175;DHT22;9212;50.894;16.714;2022-09-16T00:23:37;12.20;99.90
18175;DHT22;9212;50.894;16.714;2022-09-16T00:26:04;12.10;99.90
18175;DHT22;9212;50.894;16.714;2022-09-16T00:28:31;12.10;99.90
18175;DHT22;9212;50.894;16.714;2022-09-16T00:30:58;12.10;99.90
18175;DHT22;9212;50.894;16.714;2022-09-16T00:33:26;12.10;99.90
18175;DHT22;9212;50.894;16.714;2022-09-16T00:36:04;12.10;99.90
18175;DHT22;9212;50.894;16.714;2022-09-16T00:38:31;12.10;99.90
18175;DHT22;9212;50.894;16.714;2022-09-16T00:40:57;12.10;99.90
18175;DHT22;9212;50.894;16.714;2022-09-16T00:43:24;12.20;99.90
18175;DHT22;9212;50.894;16.714;2022-09-16T00:45:55;12.20;99.90
18175;DHT22;9212;50.894;16.714;2022-09-16T00:48:24;12.30;99.90
18175;DHT22;9212;50.894;16.714;2022-09-16T00:50:57;12.30;99.90
18175;DHT22;9212;50.894;16.714;2022-09-16T00:53:28;12.30;99.90
18175;DHT22;9212;50.894;16.714;2022-09-16T00:55:57;12.40;99.90
18175;DHT22;9212;50.894;16.714;2022-09-16T00:58:29;12.50;99.90
18175;DHT22;9212;50.894;16.714;2022-09-16T01:03:27;12.50;99.90
18175;DHT22;9212;50.894;16.714;2022-09-16T01:05:57;12.50;99.90
18175;DHT22;9212;50.894;16.714;2022-09-16T01:08:24;12.60;99.90
18175;DHT22;9212;50.894;16.714;2022-09-16T01:10:51;12.50;99.90
18175;DHT22;9212;50.894;16.714;2022-09-16T01:13:18;12.50;99.90
18175;DHT22;9212;50.894;16.714;2022-09-16T01:15:51;12.50;99.90
18175;DHT22;9212;50.894;16.714;2022-09-16T01:18:24;12.60;99.90
18175;DHT22;9212;50.894;16.714;2022-09-16T01:21:23;12.60;99.90
18175;DHT22;9212;50.894;16.714;2022-09-16T01:27:12;13.00;99.90
18175;DHT22;9212;50.894;16.714;2022-09-16T01:30:02;12.70;99.90
18175;DHT22;9212;50.894;16.714;2022-09-16T01:32:38;12.90;99.90
18175;DHT22;9212;50.894;16.714;2022-09-16T01:35:13;13.00;99.90
18175;DHT22;9212;50.894;16.714;2022-09-16T01:37:48;13.00;99.90
18175;DHT22;9212;50.894;16.714;2022-09-16T01:40:25;13.00;99.90
18175;DHT22;9212;50.894;16.714;2022-09-16T01:42:59;12.90;99.90
18175;DHT22;9212;50.894;16.714;2022-09-16T01:45:34;13.00;99.90
18175;DHT22;9212;50.894;16.714;2022-09-16T01:48:09;12.90;99.90
18175;DHT22;9212;50.894;16.714;2022-09-16T01:50:41;13.00;99.90
18175;DHT22;9212;50.894;16.714;2022-09-16T01:53:13;12.80;99.90
18175;DHT22;9212;50.894;16.714;2022-09-16T01:55:50;13.20;99.90
18175;DHT22;9212;50.894;16.714;2022-09-16T01:58:22;13.00;99.90
18175;DHT22;9212;50.894;16.714;2022-09-16T02:00:54;12.90;99.90
18175;DHT22;9212;50.894;16.714;2022-09-16T02:03:28;12.80;99.90
18175;DHT22;9212;50.894;16.714;2022-09-16T02:05:59;12.80;99.90
18175;DHT22;9212;50.894;16.714;2022-09-16T02:08:32;12.70;99.90
18175;DHT22;9212;50.894;16.714;2022-09-16T02:11:03;12.70;99.90
18175;DHT22;9212;50.894;16.714;2022-09-16T02:13:34;12.70;99.90
18175;DHT22;9212;50.894;16.714;2022-09-16T02:16:07;12.70;99.90
18175;DHT22;9212;50.894;16.714;2022-09-16T02:18:40;12.70;99.90
18175;DHT22;9212;50.894;16.714;2022-09-16T02:21:09;12.70;99.90
18175;DHT22;9212;50.894;16.714;2022-09-16T02:23:40;12.70;99.90
18175;DHT22;9212;50.894;16.714;2022-09-16T02:26:10;12.60;99.90
18175;DHT22;9212;50.894;16.714;2022-09-16T02:28:41;12.60;99.90
18175;DHT22;9212;50.894;16.714;2022-09-16T02:31:10;12.60;99.90
18175;DHT22;9212;50.894;16.714;2022-09-16T02:33:42;12.60;99.90
18175;DHT22;9212;50.894;16.714;2022-09-16T02:36:14;12.60;99.90
18175;DHT22;9212;50.894;16.714;2022-09-16T02:38:44;12.60;99.90
18175;DHT22;9212;50.894;16.714;2022-09-16T02:41:11;12.60;99.90
18175;DHT22;9212;50.894;16.714;2022-09-16T02:43:40;12.60;99.90
18175;DHT22;9212;50.894;16.714;2022-09-16T02:46:11;12.60;99.90
18175;DHT22;9212;50.894;16.714;2022-09-16T02:48:51;12.70;99.90
18175;DHT22;9212;50.894;16.714;2022-09-16T02:51:26;12.70;99.90
18175;DHT22;9212;50.894;16.714;2022-09-16T02:53:57;12.70;99.90
18175;DHT22;9212;50.894;16.714;2022-09-16T02:56:29;12.60;99.90
18175;DHT22;9212;50.894;16.714;2022-09-16T02:58:57;12.60;99.90
18175;DHT22;9212;50.894;16.714;2022-09-16T03:01:26;12.60;99.90
18175;DHT22;9212;50.894;16.714;2022-09-16T03:03:55;12.80;99.90
18175;DHT22;9212;50.894;16.714;2022-09-16T03:06:23;12.60;99.90
18175;DHT22;9212;50.894;16.714;2022-09-16T03:08:52;12.60;99.90
18175;DHT22;9212;50.894;16.714;2022-09-16T03:11:36;12.50;99.90
18175;DHT22;9212;50.894;16.714;2022-09-16T03:14:25;12.20;99.90
18175;DHT22;9212;50.894;16.714;2022-09-16T03:17:00;12.80;99.90
18175;DHT22;9212;50.894;16.714;2022-09-16T03:19:36;12.40;99.90
18175;DHT22;9212;50.894;16.714;2022-09-16T03:22:09;12.30;99.90
18175;DHT22;9212;50.894;16.714;2022-09-16T03:24:47;12.20;99.90
18175;DHT22;9212;50.894;16.714;2022-09-16T03:27:21;12.20;99.90
18175;DHT22;9212;50.894;16.714;2022-09-16T03:29:51;12.20;99.90
18175;DHT22;9212;50.894;16.714;2022-09-16T03:32:22;12.20;99.90
18175;DHT22;9212;50.894;16.714;2022-09-16T03:34:54;12.20;99.90
18175;DHT22;9212;50.894;16.714;2022-09-16T03:37:27;12.30;99.90
18175;DHT22;9212;50.894;16.714;2022-09-16T03:39:57;12.30;99.90
18175;DHT22;9212;50.894;16.714;2022-09-16T03:42:25;12.30;99.90
18175;DHT22;9212;50.894;16.714;2022-09-16T03:44:52;12.30;99.90
18175;DHT22;9212;50.894;16.714;2022-09-16T03:47:19;12.30;99.90
18175;DHT22;9212;50.894;16.714;2022-09-16T03:49:46;12.50;99.90
18175;DHT22;9212;50.894;16.714;2022-09-16T03:52:14;12.30;99.90
18175;DHT22;9212;50.894;16.714;2022-09-16T03:54:43;12.30;99.90
18175;DHT22;9212;50.894;16.714;2022-09-16T03:57:10;12.40;99.90
18175;DHT22;9212;50.894;16.714;2022-09-16T03:59:37;12.30;99.90
18175;DHT22;9212;50.894;16.714;2022-09-16T04:02:04;12.30;99.90
18175;DHT22;9212;50.894;16.714;2022-09-16T04:04:31;12.30;99.90
18175;DHT22;9212;50.894;16.714;2022-09-16T04:06:58;12.30;99.90
18175;DHT22;9212;50.894;16.714;2022-09-16T04:09:26;12.20;99.90
18175;DHT22;9212;50.894;16.714;2022-09-16T04:11:53;11.70;99.90
18175;DHT22;9212;50.894;16.714;2022-09-16T04:14:20;12.10;99.90
18175;DHT22;9212;50.894;16.714;2022-09-16T04:16:47;12.10;99.90
18175;DHT22;9212;50.894;16.714;2022-09-16T04:19:14;11.90;99.90
18175;DHT22;9212;50.894;16.714;2022-09-16T04:21:41;12.00;99.90
18175;DHT22;9212;50.894;16.714;2022-09-16T04:24:08;12.00;99.90
18175;DHT22;9212;50.894;16.714;2022-09-16T04:26:37;12.00;99.90
18175;DHT22;9212;50.894;16.714;2022-09-16T04:29:04;11.90;99.90
18175;DHT22;9212;50.894;16.714;2022-09-16T04:31:30;11.90;99.90
18175;DHT22;9212;50.894;16.714;2022-09-16T04:33:59;12.30;99.90
18175;DHT22;9212;50.894;16.714;2022-09-16T04:36:26;11.80;99.90
18175;DHT22;9212;50.894;16.714;2022-09-16T04:38:53;11.90;99.90
18175;DHT22;9212;50.894;16.714;2022-09-16T04:41:22;12.00;99.90
18175;DHT22;9212;50.894;16.714;2022-09-16T04:43:52;12.10;99.90
18175;DHT22;9212;50.894;16.714;2022-09-16T04:46:20;12.20;99.90
18175;DHT22;9212;50.894;16.714;2022-09-16T04:48:47;12.20;99.90
18175;DHT22;9212;50.894;16.714;2022-09-16T04:51:15;12.10;99.90
18175;DHT22;9212;50.894;16.714;2022-09-16T04:53:42;12.10;99.90
18175;DHT22;9212;50.894;16.714;2022-09-16T04:56:11;12.20;99.90
18175;DHT22;9212;50.894;16.714;2022-09-16T04:58:40;12.30;99.90
18175;DHT22;9212;50.894;16.714;2022-09-16T05:01:10;12.20;99.90
18175;DHT22;9212;50.894;16.714;2022-09-16T05:03:38;12.40;99.90
18175;DHT22;9212;50.894;16.714;2022-09-16T05:06:08;12.40;99.90
18175;DHT22;9212;50.894;16.714;2022-09-16T05:08:36;12.40;99.90
18175;DHT22;9212;50.894;16.714;2022-09-16T05:11:04;12.40;99.90
18175;DHT22;9212;50.894;16.714;2022-09-16T05:13:32;12.40;99.90
18175;DHT22;9212;50.894;16.714;2022-09-16T05:16:03;12.40;99.90
18175;DHT22;9212;50.894;16.714;2022-09-16T05:18:32;12.50;99.90
18175;DHT22;9212;50.894;16.714;2022-09-16T05:21:00;12.50;99.90
18175;DHT22;9212;50.894;16.714;2022-09-16T05:23:27;12.50;99.90
18175;DHT22;9212;50.894;16.714;2022-09-16T05:25:54;12.50;99.90
18175;DHT22;9212;50.894;16.714;2022-09-16T05:28:21;12.50;99.90
18175;DHT22;9212;50.894;16.714;2022-09-16T05:30:48;12.50;99.90
18175;DHT22;9212;50.894;16.714;2022-09-16T05:33:15;12.60;99.90
18175;DHT22;9212;50.894;16.714;2022-09-16T05:35:43;12.80;99.90
18175;DHT22;9212;50.894;16.714;2022-09-16T05:38:11;13.10;99.90
18175;DHT22;9212;50.894;16.714;2022-09-16T05:40:38;14.60;99.90
18175;DHT22;9212;50.894;16.714;2022-09-16T05:43:05;17.80;99.90
18175;DHT22;9212;50.894;16.714;2022-09-16T05:45:32;19.50;99.90
18175;DHT22;9212;50.894;16.714;2022-09-16T05:47:59;22.00;99.90
18175;DHT22;9212;50.894;16.714;2022-09-16T05:50:26;22.00;99.90
18175;DHT22;9212;50.894;16.714;2022-09-16T05:52:55;20.00;99.90
18175;DHT22;9212;50.894;16.714;2022-09-16T05:55:22;19.70;99.90
18175;DHT22;9212;50.894;16.714;2022-09-16T05:57:50;17.30;99.90
18175;DHT22;9212;50.894;16.714;2022-09-16T06:00:17;16.10;99.90
18175;DHT22;9212;50.894;16.714;2022-09-16T06:02:46;15.20;99.90
18175;DHT22;9212;50.894;16.714;2022-09-16T06:05:13;14.70;99.90
18175;DHT22;9212;50.894;16.714;2022-09-16T06:07:40;14.30;99.90
18175;DHT22;9212;50.894;16.714;2022-09-16T06:10:08;14.10;99.90
18175;DHT22;9212;50.894;16.714;2022-09-16T06:12:35;18.20;99.90
18175;DHT22;9212;50.894;16.714;2022-09-16T06:15:03;19.70;99.90
18175;DHT22;9212;50.894;16.714;2022-09-16T06:17:30;23.10;99.90
18175;DHT22;9212;50.894;16.714;2022-09-16T06:19:56;23.40;99.90
18175;DHT22;9212;50.894;16.714;2022-09-16T06:22:23;22.00;99.90
18175;DHT22;9212;50.894;16.714;2022-09-16T06:24:50;21.00;99.90
18175;DHT22;9212;50.894;16.714;2022-09-16T06:27:19;18.20;99.90
18175;DHT22;9212;50.894;16.714;2022-09-16T06:29:46;20.60;99.90
18175;DHT22;9212;50.894;16.714;2022-09-16T06:32:13;23.00;99.90
18175;DHT22;9212;50.894;16.714;2022-09-16T06:34:40;24.50;99.90
18175;DHT22;9212;50.894;16.714;2022-09-16T06:37:07;25.00;99.90
18175;DHT22;9212;50.894;16.714;2022-09-16T06:39:37;25.40;99.90
18175;DHT22;9212;50.894;16.714;2022-09-16T06:42:06;26.10;99.90
18175;DHT22;9212;50.894;16.714;2022-09-16T06:44:36;26.30;99.90
18175;DHT22;9212;50.894;16.714;2022-09-16T06:47:03;23.10;99.90
18175;DHT22;9212;50.894;16.714;2022-09-16T06:49:30;22.70;99.90
18175;DHT22;9212;50.894;16.714;2022-09-16T06:51:57;20.40;99.90
18175;DHT22;9212;50.894;16.714;2022-09-16T06:54:24;20.40;99.90
18175;DHT22;9212;50.894;16.714;2022-09-16T06:56:50;19.90;99.90
18175;DHT22;9212;50.894;16.714;2022-09-16T06:59:17;20.50;99.90
18175;DHT22;9212;50.894;16.714;2022-09-16T07:01:46;21.70;99.90
18175;DHT22;9212;50.894;16.714;2022-09-16T07:04:13;22.00;99.90
18175;DHT22;9212;50.894;16.714;2022-09-16T07:06:40;22.60;99.90
18175;DHT22;9212;50.894;16.714;2022-09-16T07:09:07;22.80;99.90
18175;DHT22;9212;50.894;16.714;2022-09-16T07:11:34;22.80;99.90
18175;DHT22;9212;50.894;16.714;2022-09-16T07:14:01;22.80;99.90
18175;DHT22;9212;50.894;16.714;2022-09-16T07:16:29;22.70;99.90
18175;DHT22;9212;50.894;16.714;2022-09-16T07:18:58;22.20;99.90
18175;DHT22;9212;50.894;16.714;2022-09-16T07:21:26;21.60;99.90
18175;DHT22;9212;50.894;16.714;2022-09-16T07:23:55;19.60;99.90
18175;DHT22;9212;50.894;16.714;2022-09-16T07:26:24;18.80;99.90
18175;DHT22;9212;50.894;16.714;2022-09-16T07:28:52;17.50;99.90
18175;DHT22;9212;50.894;16.714;2022-09-16T07:31:22;16.90;99.90
18175;DHT22;9212;50.894;16.714;2022-09-16T07:33:51;17.00;99.90
18175;DHT22;9212;50.894;16.714;2022-09-16T07:36:22;17.60;99.90
18175;DHT22;9212;50.894;16.714;2022-09-16T07:38:49;17.90;99.90
18175;DHT22;9212;50.894;16.714;2022-09-16T07:41:18;17.60;99.90
18175;DHT22;9212;50.894;16.714;2022-09-16T07:43:46;16.70;99.90
18175;DHT22;9212;50.894;16.714;2022-09-16T07:46:14;16.30;99.90
18175;DHT22;9212;50.894;16.714;2022-09-16T07:48:42;15.90;99.90
18175;DHT22;9212;50.894;16.714;2022-09-16T07:51:11;15.70;99.90
18175;DHT22;9212;50.894;16.714;2022-09-16T07:53:40;15.80;99.90
18175;DHT22;9212;50.894;16.714;2022-09-16T07:56:12;17.10;99.90
18175;DHT22;9212;50.894;16.714;2022-09-16T07:58:40;19.30;99.90
18175;DHT22;9212;50.894;16.714;2022-09-16T08:01:07;20.10;99.90
18175;DHT22;9212;50.894;16.714;2022-09-16T08:03:35;19.70;99.90
18175;DHT22;9212;50.894;16.714;2022-09-16T08:06:04;18.80;99.90
18175;DHT22;9212;50.894;16.714;2022-09-16T08:08:33;18.90;99.90
18175;DHT22;9212;50.894;16.714;2022-09-16T08:11:01;19.00;99.90
18175;DHT22;9212;50.894;16.714;2022-09-16T08:13:30;18.60;99.90
18175;DHT22;9212;50.894;16.714;2022-09-16T08:16:00;18.40;99.90
18175;DHT22;9212;50.894;16.714;2022-09-16T08:18:27;18.20;99.90
18175;DHT22;9212;50.894;16.714;2022-09-16T08:20:55;18.00;99.90
18175;DHT22;9212;50.894;16.714;2022-09-16T08:23:22;17.60;99.90
18175;DHT22;9212;50.894;16.714;2022-09-16T08:25:55;17.30;99.90
18175;DHT22;9212;50.894;16.714;2022-09-16T08:28:24;17.10;99.90
18175;DHT22;9212;50.894;16.714;2022-09-16T08:30:51;17.00;99.90
18175;DHT22;9212;50.894;16.714;2022-09-16T08:33:18;17.10;99.90
18175;DHT22;9212;50.894;16.714;2022-09-16T08:35:57;17.10;99.90
18175;DHT22;9212;50.894;16.714;2022-09-16T08:38:24;17.60;99.90
18175;DHT22;9212;50.894;16.714;2022-09-16T08:40:53;17.80;99.90
18175;DHT22;9212;50.894;16.714;2022-09-16T08:43:30;17.80;99.90
18175;DHT22;9212;50.894;16.714;2022-09-16T08:46:04;17.30;99.90
18175;DHT22;9212;50.894;16.714;2022-09-16T08:48:42;17.30;99.90
18175;DHT22;9212;50.894;16.714;2022-09-16T08:51:16;17.60;99.90
18175;DHT22;9212;50.894;16.714;2022-09-16T08:53:48;17.70;99.90
18175;DHT22;9212;50.894;16.714;2022-09-16T08:56:19;17.50;99.90
18175;DHT22;9212;50.894;16.714;2022-09-16T08:58:52;17.20;99.90
18175;DHT22;9212;50.894;16.714;2022-09-16T09:01:25;17.70;99.90
18175;DHT22;9212;50.894;16.714;2022-09-16T09:03:54;18.60;99.90
18175;DHT22;9212;50.894;16.714;2022-09-16T09:06:32;19.10;99.90
18175;DHT22;9212;50.894;16.714;2022-09-16T09:09:26;19.40;99.90
18175;DHT22;9212;50.894;16.714;2022-09-16T09:12:01;19.00;99.90
18175;DHT22;9212;50.894;16.714;2022-09-16T09:14:41;19.10;99.90
18175;DHT22;9212;50.894;16.714;2022-09-16T09:17:18;18.40;99.90
18175;DHT22;9212;50.894;16.714;2022-09-16T09:20:12;17.90;99.90
18175;DHT22;9212;50.894;16.714;2022-09-16T09:25:44;17.30;99.90
18175;DHT22;9212;50.894;16.714;2022-09-16T09:28:28;17.50;99.90
18175;DHT22;9212;50.894;16.714;2022-09-16T09:31:07;16.80;99.90
18175;DHT22;9212;50.894;16.714;2022-09-16T09:33:43;16.60;99.90
18175;DHT22;9212;50.894;16.714;2022-09-16T09:36:31;16.20;99.90
18175;DHT22;9212;50.894;16.714;2022-09-16T09:39:28;15.90;99.90
18175;DHT22;9212;50.894;16.714;2022-09-16T09:42:01;15.50;99.90
18175;DHT22;9212;50.894;16.714;2022-09-16T09:44:40;15.10;99.90
18175;DHT22;9212;50.894;16.714;2022-09-16T09:47:11;15.20;99.90
18175;DHT22;9212;50.894;16.714;2022-09-16T09:49:43;15.10;99.90
18175;DHT22;9212;50.894;16.714;2022-09-16T09:52:15;15.50;99.90
18175;DHT22;9212;50.894;16.714;2022-09-16T09:54:45;15.30;99.90
18175;DHT22;9212;50.894;16.714;2022-09-16T09:57:20;15.70;99.90
18175;DHT22;9212;50.894;16.714;2022-09-16T09:59:51;16.90;99.90
18175;DHT22;9212;50.894;16.714;2022-09-16T10:02:22;17.60;99.90
18175;DHT22;9212;50.894;16.714;2022-09-16T10:04:50;18.60;99.90
18175;DHT22;9212;50.894;16.714;2022-09-16T10:07:18;18.90;99.90
18175;DHT22;9212;50.894;16.714;2022-09-16T10:09:48;19.50;99.90
18175;DHT22;9212;50.894;16.714;2022-09-16T10:12:29;18.70;99.90
18175;DHT22;9212;50.894;16.714;2022-09-16T10:14:56;18.00;99.90
18175;DHT22;9212;50.894;16.714;2022-09-16T10:17:26;17.80;99.90
18175;DHT22;9212;50.894;16.714;2022-09-16T10:19:55;17.90;99.90
18175;DHT22;9212;50.894;16.714;2022-09-16T10:22:25;18.00;99.90
18175;DHT22;9212;50.894;16.714;2022-09-16T10:24:55;17.40;99.90
18175;DHT22;9212;50.894;16.714;2022-09-16T10:27:24;17.40;99.90
18175;DHT22;9212;50.894;16.714;2022-09-16T10:30:08;17.60;99.90
18175;DHT22;9212;50.894;16.714;2022-09-16T10:32:45;18.60;99.90
18175;DHT22;9212;50.894;16.714;2022-09-16T10:35:17;19.50;99.90
18175;DHT22;9212;50.894;16.714;2022-09-16T10:37:50;19.10;99.90
18175;DHT22;9212;50.894;16.714;2022-09-16T10:40:17;18.70;99.90
18175;DHT22;9212;50.894;16.714;2022-09-16T10:42:46;17.90;99.90
18175;DHT22;9212;50.894;16.714;2022-09-16T10:45:15;18.30;99.90
18175;DHT22;9212;50.894;16.714;2022-09-16T10:47:49;18.10;99.90
18175;DHT22;9212;50.894;16.714;2022-09-16T10:50:17;17.90;99.90
18175;DHT22;9212;50.894;16.714;2022-09-16T10:52:46;17.60;99.90
18175;DHT22;9212;50.894;16.714;2022-09-16T10:55:26;17.70;99.90
18175;DHT22;9212;50.894;16.714;2022-09-16T10:58:06;17.30;99.90
18175;DHT22;9212;50.894;16.714;2022-09-16T11:00:39;17.30;99.90
18175;DHT22;9212;50.894;16.714;2022-09-16T11:03:35;18.00;99.90
18175;DHT22;9212;50.894;16.714;2022-09-16T11:06:17;17.80;99.90
18175;DHT22;9212;50.894;16.714;2022-09-16T11:08:56;18.70;99.90
18175;DHT22;9212;50.894;16.714;2022-09-16T11:11:38;18.80;99.90
18175;DHT22;9212;50.894;16.714;2022-09-16T11:14:14;18.10;99.90
18175;DHT22;9212;50.894;16.714;2022-09-16T11:16:58;18.00;99.90
18175;DHT22;9212;50.894;16.714;2022-09-16T11:19:34;18.00;99.90
18175;DHT22;9212;50.894;16.714;2022-09-16T11:22:12;18.00;99.90
18175;DHT22;9212;50.894;16.714;2022-09-16T11:24:56;17.40;99.90
18175;DHT22;9212;50.894;16.714;2022-09-16T11:27:38;17.90;99.90
18175;DHT22;9212;50.894;16.714;2022-09-16T11:30:10;18.50;99.90
18175;DHT22;9212;50.894;16.714;2022-09-16T11:32:59;18.80;99.90
18175;DHT22;9212;50.894;16.714;2022-09-16T11:35:39;19.40;99.90
18175;DHT22;9212;50.894;16.714;2022-09-16T11:38:16;19.90;99.90
18175;DHT22;9212;50.894;16.714;2022-09-16T11:40:47;20.30;99.90
18175;DHT22;9212;50.894;16.714;2022-09-16T11:43:37;20.80;99.90
18175;DHT22;9212;50.894;16.714;2022-09-16T11:46:12;20.90;99.90
18175;DHT22;9212;50.894;16.714;2022-09-16T11:48:53;21.00;99.90
18175;DHT22;9212;50.894;16.714;2022-09-16T11:51:37;21.50;99.90
18175;DHT22;9212;50.894;16.714;2022-09-16T11:54:17;20.10;99.90
18175;DHT22;9212;50.894;16.714;2022-09-16T11:56:50;19.70;99.90
18175;DHT22;9212;50.894;16.714;2022-09-16T11:59:24;19.90;99.90
18175;DHT22;9212;50.894;16.714;2022-09-16T12:01:57;18.30;99.90
18175;DHT22;9212;50.894;16.714;2022-09-16T12:04:30;18.90;99.90
18175;DHT22;9212;50.894;16.714;2022-09-16T12:07:05;17.40;99.90
18175;DHT22;9212;50.894;16.714;2022-09-16T12:09:39;17.80;99.90
18175;DHT22;9212;50.894;16.714;2022-09-16T12:12:10;18.20;99.90
18175;DHT22;9212;50.894;16.714;2022-09-16T12:14:41;17.90;99.90
18175;DHT22;9212;50.894;16.714;2022-09-16T12:17:13;18.60;99.90
18175;DHT22;9212;50.894;16.714;2022-09-16T12:19:46;18.30;99.90
18175;DHT22;9212;50.894;16.714;2022-09-16T12:22:19;18.00;99.90
18175;DHT22;9212;50.894;16.714;2022-09-16T12:24:54;18.10;99.90
18175;DHT22;9212;50.894;16.714;2022-09-16T12:27:32;18.10;99.90
18175;DHT22;9212;50.894;16.714;2022-09-16T12:30:04;18.40;99.90
18175;DHT22;9212;50.894;16.714;2022-09-16T12:32:37;18.70;99.90
18175;DHT22;9212;50.894;16.714;2022-09-16T12:35:13;18.60;99.90
18175;DHT22;9212;50.894;16.714;2022-09-16T12:37:46;18.40;99.90
18175;DHT22;9212;50.894;16.714;2022-09-16T12:40:16;18.80;99.90
18175;DHT22;9212;50.894;16.714;2022-09-16T12:43:25;19.50;99.90
18175;DHT22;9212;50.894;16.714;2022-09-16T12:46:17;19.20;99.90
18175;DHT22;9212;50.894;16.714;2022-09-16T12:49:24;18.70;99.90
18175;DHT22;9212;50.894;16.714;2022-09-16T12:52:30;18.40;99.90
18175;DHT22;9212;50.894;16.714;2022-09-16T12:55:22;18.70;99.90
18175;DHT22;9212;50.894;16.714;2022-09-16T12:58:06;19.20;99.90
18175;DHT22;9212;50.894;16.714;2022-09-16T13:00:42;19.40;99.90
18175;DHT22;9212;50.894;16.714;2022-09-16T13:03:14;19.10;99.90
18175;DHT22;9212;50.894;16.714;2022-09-16T13:05:45;19.20;99.90
18175;DHT22;9212;50.894;16.714;2022-09-16T13:08:20;19.20;99.90
18175;DHT22;9212;50.894;16.714;2022-09-16T13:10:56;19.20;99.90
18175;DHT22;9212;50.894;16.714;2022-09-16T13:13:32;19.30;99.90
18175;DHT22;9212;50.894;16.714;2022-09-16T13:16:01;19.40;99.90
18175;DHT22;9212;50.894;16.714;2022-09-16T13:18:40;19.80;99.90
18175;DHT22;9212;50.894;16.714;2022-09-16T13:21:18;19.90;99.90
18175;DHT22;9212;50.894;16.714;2022-09-16T13:23:52;20.10;99.90
18175;DHT22;9212;50.894;16.714;2022-09-16T13:26:21;20.20;99.90
18175;DHT22;9212;50.894;16.714;2022-09-16T13:28:48;20.10;99.90
18175;DHT22;9212;50.894;16.714;2022-09-16T13:31:17;19.20;99.90
18175;DHT22;9212;50.894;16.714;2022-09-16T13:33:45;19.30;99.90
18175;DHT22;9212;50.894;16.714;2022-09-16T13:38:58;19.80;99.90
18175;DHT22;9212;50.894;16.714;2022-09-16T13:41:32;19.20;99.90
18175;DHT22;9212;50.894;16.714;2022-09-16T13:44:00;18.00;99.90
18175;DHT22;9212;50.894;16.714;2022-09-16T13:46:35;18.30;99.90
18175;DHT22;9212;50.894;16.714;2022-09-16T13:49:18;18.10;99.90
18175;DHT22;9212;50.894;16.714;2022-09-16T13:51:47;17.90;99.90
18175;DHT22;9212;50.894;16.714;2022-09-16T13:54:19;18.00;99.90
18175;DHT22;9212;50.894;16.714;2022-09-16T13:57:00;17.50;99.90
18175;DHT22;9212;50.894;16.714;2022-09-16T13:59:42;18.10;99.90
18175;DHT22;9212;50.894;16.714;2022-09-16T14:02:14;18.10;99.90
18175;DHT22;9212;50.894;16.714;2022-09-16T14:05:10;17.60;99.90
18175;DHT22;9212;50.894;16.714;2022-09-16T14:07:45;17.60;99.90
18175;DHT22;9212;50.894;16.714;2022-09-16T14:10:18;17.70;99.90
18175;DHT22;9212;50.894;16.714;2022-09-16T14:12:58;18.70;99.90
18175;DHT22;9212;50.894;16.714;2022-09-16T14:15:28;18.90;99.90
18175;DHT22;9212;50.894;16.714;2022-09-16T14:18:01;18.50;99.90
18175;DHT22;9212;50.894;16.714;2022-09-16T14:20:28;18.20;99.90
18175;DHT22;9212;50.894;16.714;2022-09-16T14:23:00;18.50;99.90
18175;DHT22;9212;50.894;16.714;2022-09-16T14:25:29;18.70;99.90
18175;DHT22;9212;50.894;16.714;2022-09-16T14:28:18;18.30;99.90
18175;DHT22;9212;50.894;16.714;2022-09-16T14:30:47;18.50;99.90
18175;DHT22;9212;50.894;16.714;2022-09-16T14:33:16;18.30;99.90
18175;DHT22;9212;50.894;16.714;2022-09-16T14:35:46;17.90;99.90
18175;DHT22;9212;50.894;16.714;2022-09-16T14:38:14;17.30;99.90
18175;DHT22;9212;50.894;16.714;2022-09-16T14:40:43;16.90;99.90
18175;DHT22;9212;50.894;16.714;2022-09-16T14:43:15;16.80;99.90
18175;DHT22;9212;50.894;16.714;2022-09-16T14:45:46;16.40;99.90
18175;DHT22;9212;50.894;16.714;2022-09-16T14:48:14;15.20;99.90
18175;DHT22;9212;50.894;16.714;2022-09-16T14:50:45;13.70;99.90
18175;DHT22;9212;50.894;16.714;2022-09-16T14:53:24;14.40;99.90
18175;DHT22;9212;50.894;16.714;2022-09-16T14:55:51;14.80;99.90
18175;DHT22;9212;50.894;16.714;2022-09-16T14:58:21;15.40;99.90
18175;DHT22;9212;50.894;16.714;2022-09-16T15:00:51;15.80;99.90
18175;DHT22;9212;50.894;16.714;2022-09-16T15:03:24;15.60;99.90
18175;DHT22;9212;50.894;16.714;2022-09-16T15:05:54;15.40;99.90
18175;DHT22;9212;50.894;16.714;2022-09-16T15:08:26;14.40;99.90
18175;DHT22;9212;50.894;16.714;2022-09-16T15:10:58;14.20;99.90
18175;DHT22;9212;50.894;16.714;2022-09-16T15:13:29;14.60;99.90
18175;DHT22;9212;50.894;16.714;2022-09-16T15:16:03;14.30;99.90
18175;DHT22;9212;50.894;16.714;2022-09-16T15:18:35;13.90;99.90
18175;DHT22;9212;50.894;16.714;2022-09-16T15:21:06;14.70;99.90
18175;DHT22;9212;50.894;16.714;2022-09-16T15:23:35;14.50;99.90
18175;DHT22;9212;50.894;16.714;2022-09-16T15:26:12;14.20;99.90
18175;DHT22;9212;50.894;16.714;2022-09-16T15:28:59;14.60;99.90
18175;DHT22;9212;50.894;16.714;2022-09-16T15:31:35;14.30;99.90
18175;DHT22;9212;50.894;16.714;2022-09-16T15:34:18;15.00;99.90
18175;DHT22;9212;50.894;16.714;2022-09-16T15:36:46;15.20;99.90
18175;DHT22;9212;50.894;16.714;2022-09-16T15:39:24;15.20;99.90
18175;DHT22;9212;50.894;16.714;2022-09-16T15:42:08;15.70;99.90
18175;DHT22;9212;50.894;16.714;2022-09-16T15:44:41;15.20;99.90
18175;DHT22;9212;50.894;16.714;2022-09-16T15:47:16;15.20;99.90
18175;DHT22;9212;50.894;16.714;2022-09-16T15:49:43;15.20;99.90
18175;DHT22;9212;50.894;16.714;2022-09-16T15:52:11;14.90;99.90
18175;DHT22;9212;50.894;16.714;2022-09-16T15:54:46;14.70;99.90
18175;DHT22;9212;50.894;16.714;2022-09-16T15:57:22;14.30;99.90
18175;DHT22;9212;50.894;16.714;2022-09-16T15:59:59;14.20;99.90
18175;DHT22;9212;50.894;16.714;2022-09-16T16:02:37;13.70;99.90
18175;DHT22;9212;50.894;16.714;2022-09-16T16:05:08;13.50;99.90
18175;DHT22;9212;50.894;16.714;2022-09-16T16:07:40;13.70;99.90
18175;DHT22;9212;50.894;16.714;2022-09-16T16:10:13;13.20;99.90
18175;DHT22;9212;50.894;16.714;2022-09-16T16:12:42;12.80;99.90